sensor_id;sensor_type;location;lat;lon;timestamp;P1;durP1;ratioP1;P2;durP2;ratioP2
32297;SDS011;18782;48.984;8.548;2022-08-19T00:01:25;14.45;;;11.88;;
32297;SDS011;18782;48.984;8.548;2022-08-19T00:03:56;14.13;;;12.23;;
32297;SDS011;18782;48.984;8.548;2022-08-19T00:06:24;13.80;;;12.32;;
32297;SDS011;18782;48.984;8.548;2022-08-19T00:08:51;14.07;;;11.98;;
32297;SDS011;18782;48.984;8.548;2022-08-19T00:11:19;13.88;;;12.40;;
32297;SDS011;18782;48.984;8.548;2022-08-19T00:13:51;13.68;;;11.48;;
32297;SDS011;18782;48.984;8.548;2022-08-19T00:16:23;16.95;;;11.93;;
32297;SDS011;18782;48.984;8.548;2022-08-19T00:18:52;14.13;;;12.43;;
32297;SDS011;18782;48.984;8.548;2022-08-19T00:21:21;19.67;;;14.85;;
32297;SDS011;18782;48.984;8.548;2022-08-19T00:23:49;14.63;;;13.10;;
32297;SDS011;18782;48.984;8.548;2022-08-19T00:26:17;17.83;;;14.43;;
32297;SDS011;18782;48.984;8.548;2022-08-19T00:28:45;14.43;;;12.15;;
32297;SDS011;18782;48.984;8.548;2022-08-19T00:31:13;14.65;;;13.13;;
32297;SDS011;18782;48.984;8.548;2022-08-19T00:33:43;12.60;;;11.20;;
32297;SDS011;18782;48.984;8.548;2022-08-19T00:36:11;14.52;;;12.93;;
32297;SDS011;18782;48.984;8.548;2022-08-19T00:38:39;13.98;;;12.43;;
32297;SDS011;18782;48.984;8.548;2022-08-19T00:41:09;14.25;;;12.75;;
32297;SDS011;18782;48.984;8.548;2022-08-19T00:43:37;13.52;;;12.13;;
32297;SDS011;18782;48.984;8.548;2022-08-19T00:46:06;13.48;;;12.10;;
32297;SDS011;18782;48.984;8.548;2022-08-19T00:48:34;13.63;;;12.23;;
32297;SDS011;18782;48.984;8.548;2022-08-19T00:51:04;13.68;;;12.32;;
32297;SDS011;18782;48.984;8.548;2022-08-19T00:53:33;15.27;;;13.02;;
32297;SDS011;18782;48.984;8.548;2022-08-19T00:56:01;13.25;;;11.90;;
32297;SDS011;18782;48.984;8.548;2022-08-19T00:58:32;13.40;;;12.00;;
32297;SDS011;18782;48.984;8.548;2022-08-19T01:01:01;13.70;;;12.30;;
32297;SDS011;18782;48.984;8.548;2022-08-19T01:03:30;14.00;;;11.88;;
32297;SDS011;18782;48.984;8.548;2022-08-19T01:06:19;13.30;;;11.90;;
32297;SDS011;18782;48.984;8.548;2022-08-19T01:08:47;15.00;;;12.43;;
32297;SDS011;18782;48.984;8.548;2022-08-19T01:11:15;13.70;;;12.00;;
32297;SDS011;18782;48.984;8.548;2022-08-19T01:13:43;15.80;;;11.75;;
32297;SDS011;18782;48.984;8.548;2022-08-19T01:16:15;13.40;;;12.00;;
32297;SDS011;18782;48.984;8.548;2022-08-19T01:18:46;13.45;;;12.05;;
32297;SDS011;18782;48.984;8.548;2022-08-19T01:21:16;13.68;;;12.25;;
32297;SDS011;18782;48.984;8.548;2022-08-19T01:23:50;13.80;;;12.32;;
32297;SDS011;18782;48.984;8.548;2022-08-19T01:26:19;15.18;;;12.13;;
32297;SDS011;18782;48.984;8.548;2022-08-19T01:28:50;13.77;;;12.38;;
32297;SDS011;18782;48.984;8.548;2022-08-19T01:31:26;16.02;;;13.48;;
32297;SDS011;18782;48.984;8.548;2022-08-19T01:36:27;16.35;;;12.77;;
32297;SDS011;18782;48.984;8.548;2022-08-19T01:38:59;14.30;;;12.68;;
32297;SDS011;18782;48.984;8.548;2022-08-19T01:41:27;14.07;;;12.60;;
32297;SDS011;18782;48.984;8.548;2022-08-19T01:43:55;14.63;;;13.02;;
32297;SDS011;18782;48.984;8.548;2022-08-19T01:46:43;14.35;;;12.77;;
32297;SDS011;18782;48.984;8.548;2022-08-19T01:49:12;14.32;;;12.77;;
32297;SDS011;18782;48.984;8.548;2022-08-19T01:51:39;14.27;;;12.63;;
32297;SDS011;18782;48.984;8.548;2022-08-19T01:54:09;15.10;;;13.40;;
32297;SDS011;18782;48.984;8.548;2022-08-19T01:56:38;15.32;;;13.45;;
32297;SDS011;18782;48.984;8.548;2022-08-19T01:59:08;15.20;;;13.00;;
32297;SDS011;18782;48.984;8.548;2022-08-19T02:01:39;14.55;;;12.90;;
32297;SDS011;18782;48.984;8.548;2022-08-19T02:04:07;15.02;;;13.52;;
32297;SDS011;18782;48.984;8.548;2022-08-19T02:06:35;14.63;;;13.18;;
32297;SDS011;18782;48.984;8.548;2022-08-19T02:09:03;15.27;;;12.02;;
32297;SDS011;18782;48.984;8.548;2022-08-19T02:11:34;14.73;;;13.23;;
32297;SDS011;18782;48.984;8.548;2022-08-19T02:14:04;13.98;;;12.57;;
32297;SDS011;18782;48.984;8.548;2022-08-19T02:16:35;13.88;;;12.38;;
32297;SDS011;18782;48.984;8.548;2022-08-19T02:19:03;14.02;;;12.63;;
32297;SDS011;18782;48.984;8.548;2022-08-19T02:21:32;13.65;;;12.30;;
32297;SDS011;18782;48.984;8.548;2022-08-19T02:23:59;13.90;;;12.07;;
32297;SDS011;18782;48.984;8.548;2022-08-19T02:26:27;13.82;;;12.27;;
32297;SDS011;18782;48.984;8.548;2022-08-19T02:28:57;14.65;;;13.05;;
32297;SDS011;18782;48.984;8.548;2022-08-19T02:31:25;13.60;;;12.25;;
32297;SDS011;18782;48.984;8.548;2022-08-19T02:33:54;13.20;;;11.90;;
32297;SDS011;18782;48.984;8.548;2022-08-19T02:36:23;13.15;;;11.80;;
32297;SDS011;18782;48.984;8.548;2022-08-19T02:38:51;14.23;;;12.82;;
32297;SDS011;18782;48.984;8.548;2022-08-19T02:41:21;13.10;;;11.80;;
32297;SDS011;18782;48.984;8.548;2022-08-19T02:43:52;13.40;;;11.63;;
32297;SDS011;18782;48.984;8.548;2022-08-19T02:46:41;12.57;;;11.13;;
32297;SDS011;18782;48.984;8.548;2022-08-19T02:49:10;14.15;;;12.65;;
32297;SDS011;18782;48.984;8.548;2022-08-19T02:51:39;13.00;;;11.65;;
32297;SDS011;18782;48.984;8.548;2022-08-19T02:54:10;14.00;;;12.20;;
32297;SDS011;18782;48.984;8.548;2022-08-19T02:56:40;13.45;;;12.13;;
32297;SDS011;18782;48.984;8.548;2022-08-19T02:59:09;14.00;;;12.50;;
32297;SDS011;18782;48.984;8.548;2022-08-19T03:01:37;13.20;;;11.80;;
32297;SDS011;18782;48.984;8.548;2022-08-19T03:04:11;12.68;;;11.38;;
32297;SDS011;18782;48.984;8.548;2022-08-19T03:09:09;12.35;;;11.15;;
32297;SDS011;18782;48.984;8.548;2022-08-19T03:11:38;15.50;;;13.82;;
32297;SDS011;18782;48.984;8.548;2022-08-19T03:14:07;15.27;;;13.68;;
32297;SDS011;18782;48.984;8.548;2022-08-19T03:16:39;13.80;;;12.30;;
32297;SDS011;18782;48.984;8.548;2022-08-19T03:19:11;14.55;;;13.07;;
32297;SDS011;18782;48.984;8.548;2022-08-19T03:21:39;12.70;;;11.50;;
32297;SDS011;18782;48.984;8.548;2022-08-19T03:24:07;12.85;;;11.55;;
32297;SDS011;18782;48.984;8.548;2022-08-19T03:26:38;13.32;;;12.02;;
32297;SDS011;18782;48.984;8.548;2022-08-19T03:29:06;12.65;;;11.32;;
32297;SDS011;18782;48.984;8.548;2022-08-19T03:31:39;13.88;;;12.48;;
32297;SDS011;18782;48.984;8.548;2022-08-19T03:34:20;14.57;;;13.15;;
32297;SDS011;18782;48.984;8.548;2022-08-19T03:36:52;14.85;;;13.25;;
32297;SDS011;18782;48.984;8.548;2022-08-19T03:39:21;13.57;;;12.27;;
32297;SDS011;18782;48.984;8.548;2022-08-19T03:41:52;14.52;;;13.13;;
32297;SDS011;18782;48.984;8.548;2022-08-19T03:44:43;14.15;;;12.65;;
32297;SDS011;18782;48.984;8.548;2022-08-19T03:47:11;15.57;;;13.50;;
32297;SDS011;18782;48.984;8.548;2022-08-19T03:49:43;13.93;;;12.23;;
32297;SDS011;18782;48.984;8.548;2022-08-19T03:52:11;13.85;;;12.40;;
32297;SDS011;18782;48.984;8.548;2022-08-19T03:54:40;13.55;;;12.15;;
32297;SDS011;18782;48.984;8.548;2022-08-19T03:57:08;14.80;;;13.43;;
32297;SDS011;18782;48.984;8.548;2022-08-19T03:59:37;14.38;;;12.80;;
32297;SDS011;18782;48.984;8.548;2022-08-19T04:02:05;17.50;;;14.98;;
32297;SDS011;18782;48.984;8.548;2022-08-19T04:04:36;17.52;;;15.82;;
32297;SDS011;18782;48.984;8.548;2022-08-19T04:07:05;13.88;;;12.57;;
32297;SDS011;18782;48.984;8.548;2022-08-19T04:09:34;15.48;;;13.85;;
32297;SDS011;18782;48.984;8.548;2022-08-19T04:12:03;15.50;;;14.00;;
32297;SDS011;18782;48.984;8.548;2022-08-19T04:14:33;15.88;;;14.27;;
32297;SDS011;18782;48.984;8.548;2022-08-19T04:17:01;16.60;;;14.95;;
32297;SDS011;18782;48.984;8.548;2022-08-19T04:19:30;17.25;;;15.45;;
32297;SDS011;18782;48.984;8.548;2022-08-19T04:21:59;15.77;;;14.18;;
32297;SDS011;18782;48.984;8.548;2022-08-19T04:24:28;14.85;;;13.40;;
32297;SDS011;18782;48.984;8.548;2022-08-19T04:26:55;14.95;;;13.32;;
32297;SDS011;18782;48.984;8.548;2022-08-19T04:29:24;16.48;;;14.55;;
32297;SDS011;18782;48.984;8.548;2022-08-19T04:31:53;16.02;;;14.35;;
32297;SDS011;18782;48.984;8.548;2022-08-19T04:34:23;15.75;;;14.10;;
32297;SDS011;18782;48.984;8.548;2022-08-19T04:36:53;15.80;;;13.65;;
32297;SDS011;18782;48.984;8.548;2022-08-19T04:39:23;19.17;;;16.90;;
32297;SDS011;18782;48.984;8.548;2022-08-19T04:42:13;16.10;;;14.57;;
32297;SDS011;18782;48.984;8.548;2022-08-19T04:44:58;17.02;;;14.68;;
32297;SDS011;18782;48.984;8.548;2022-08-19T04:47:26;17.80;;;16.00;;
32297;SDS011;18782;48.984;8.548;2022-08-19T04:50:14;20.63;;;17.92;;
32297;SDS011;18782;48.984;8.548;2022-08-19T04:52:44;16.50;;;14.90;;
32297;SDS011;18782;48.984;8.548;2022-08-19T04:55:12;16.52;;;14.23;;
32297;SDS011;18782;48.984;8.548;2022-08-19T04:57:41;15.45;;;13.85;;
32297;SDS011;18782;48.984;8.548;2022-08-19T05:00:09;14.40;;;13.02;;
32297;SDS011;18782;48.984;8.548;2022-08-19T05:02:38;18.52;;;16.52;;
32297;SDS011;18782;48.984;8.548;2022-08-19T05:05:06;18.13;;;15.60;;
32297;SDS011;18782;48.984;8.548;2022-08-19T05:07:35;16.27;;;14.68;;
32297;SDS011;18782;48.984;8.548;2022-08-19T05:10:04;16.40;;;14.68;;
32297;SDS011;18782;48.984;8.548;2022-08-19T05:12:33;19.58;;;17.13;;
32297;SDS011;18782;48.984;8.548;2022-08-19T05:15:02;16.63;;;14.90;;
32297;SDS011;18782;48.984;8.548;2022-08-19T05:17:32;15.77;;;14.27;;
32297;SDS011;18782;48.984;8.548;2022-08-19T05:20:04;21.42;;;17.13;;
32297;SDS011;18782;48.984;8.548;2022-08-19T05:22:51;18.00;;;16.20;;
32297;SDS011;18782;48.984;8.548;2022-08-19T05:25:20;19.38;;;15.23;;
32297;SDS011;18782;48.984;8.548;2022-08-19T05:27:49;15.63;;;14.02;;
32297;SDS011;18782;48.984;8.548;2022-08-19T05:30:18;14.90;;;13.32;;
32297;SDS011;18782;48.984;8.548;2022-08-19T05:33:06;15.30;;;13.82;;
32297;SDS011;18782;48.984;8.548;2022-08-19T05:35:36;17.20;;;15.38;;
32297;SDS011;18782;48.984;8.548;2022-08-19T05:38:04;18.70;;;16.65;;
32297;SDS011;18782;48.984;8.548;2022-08-19T05:40:33;18.67;;;16.70;;
32297;SDS011;18782;48.984;8.548;2022-08-19T05:43:02;15.77;;;14.27;;
32297;SDS011;18782;48.984;8.548;2022-08-19T05:45:32;15.75;;;14.13;;
32297;SDS011;18782;48.984;8.548;2022-08-19T05:48:00;14.93;;;13.38;;
32297;SDS011;18782;48.984;8.548;2022-08-19T05:50:27;17.25;;;15.55;;
32297;SDS011;18782;48.984;8.548;2022-08-19T05:52:56;18.83;;;15.88;;
32297;SDS011;18782;48.984;8.548;2022-08-19T05:55:23;21.80;;;15.52;;
32297;SDS011;18782;48.984;8.548;2022-08-19T05:57:51;17.15;;;15.35;;
32297;SDS011;18782;48.984;8.548;2022-08-19T06:00:19;16.52;;;14.48;;
32297;SDS011;18782;48.984;8.548;2022-08-19T06:02:51;16.33;;;14.73;;
32297;SDS011;18782;48.984;8.548;2022-08-19T06:05:21;16.92;;;15.25;;
32297;SDS011;18782;48.984;8.548;2022-08-19T06:07:48;16.70;;;14.80;;
32297;SDS011;18782;48.984;8.548;2022-08-19T06:10:16;15.32;;;13.73;;
32297;SDS011;18782;48.984;8.548;2022-08-19T06:12:43;15.00;;;13.50;;
32297;SDS011;18782;48.984;8.548;2022-08-19T06:15:12;15.20;;;13.70;;
32297;SDS011;18782;48.984;8.548;2022-08-19T06:17:41;16.70;;;15.10;;
32297;SDS011;18782;48.984;8.548;2022-08-19T06:20:13;16.83;;;14.80;;
32297;SDS011;18782;48.984;8.548;2022-08-19T06:22:55;13.82;;;12.35;;
32297;SDS011;18782;48.984;8.548;2022-08-19T06:25:22;13.93;;;12.40;;
32297;SDS011;18782;48.984;8.548;2022-08-19T06:27:55;14.30;;;12.70;;
32297;SDS011;18782;48.984;8.548;2022-08-19T06:30:40;14.45;;;12.95;;
32297;SDS011;18782;48.984;8.548;2022-08-19T06:33:08;14.70;;;12.85;;
32297;SDS011;18782;48.984;8.548;2022-08-19T06:35:39;16.00;;;13.77;;
32297;SDS011;18782;48.984;8.548;2022-08-19T06:38:07;16.50;;;14.88;;
32297;SDS011;18782;48.984;8.548;2022-08-19T06:40:35;15.45;;;13.95;;
32297;SDS011;18782;48.984;8.548;2022-08-19T06:43:03;15.20;;;13.60;;
32297;SDS011;18782;48.984;8.548;2022-08-19T06:45:36;14.60;;;12.93;;
32297;SDS011;18782;48.984;8.548;2022-08-19T06:48:05;14.15;;;12.60;;
32297;SDS011;18782;48.984;8.548;2022-08-19T06:50:33;15.55;;;12.75;;
32297;SDS011;18782;48.984;8.548;2022-08-19T06:53:06;14.70;;;13.15;;
32297;SDS011;18782;48.984;8.548;2022-08-19T06:55:33;14.82;;;13.32;;
32297;SDS011;18782;48.984;8.548;2022-08-19T06:58:01;15.02;;;13.38;;
32297;SDS011;18782;48.984;8.548;2022-08-19T07:00:31;18.77;;;14.20;;
32297;SDS011;18782;48.984;8.548;2022-08-19T07:02:59;13.88;;;11.85;;
32297;SDS011;18782;48.984;8.548;2022-08-19T07:08:11;18.25;;;14.07;;
32297;SDS011;18782;48.984;8.548;2022-08-19T07:10:42;14.05;;;12.68;;
32297;SDS011;18782;48.984;8.548;2022-08-19T07:13:10;18.05;;;13.27;;
32297;SDS011;18782;48.984;8.548;2022-08-19T07:15:38;20.65;;;15.32;;
32297;SDS011;18782;48.984;8.548;2022-08-19T07:18:06;15.15;;;13.18;;
32297;SDS011;18782;48.984;8.548;2022-08-19T07:20:37;16.20;;;14.60;;
32297;SDS011;18782;48.984;8.548;2022-08-19T07:23:07;14.52;;;13.02;;
32297;SDS011;18782;48.984;8.548;2022-08-19T07:25:37;14.63;;;12.75;;
32297;SDS011;18782;48.984;8.548;2022-08-19T07:28:06;14.77;;;13.23;;
32297;SDS011;18782;48.984;8.548;2022-08-19T07:30:49;15.60;;;12.10;;
32297;SDS011;18782;48.984;8.548;2022-08-19T07:33:18;14.90;;;12.38;;
32297;SDS011;18782;48.984;8.548;2022-08-19T07:35:45;15.63;;;13.18;;
32297;SDS011;18782;48.984;8.548;2022-08-19T07:38:13;13.73;;;12.38;;
32297;SDS011;18782;48.984;8.548;2022-08-19T07:40:44;13.68;;;12.27;;
32297;SDS011;18782;48.984;8.548;2022-08-19T07:43:12;13.68;;;11.43;;
32297;SDS011;18782;48.984;8.548;2022-08-19T07:45:43;12.32;;;11.05;;
32297;SDS011;18782;48.984;8.548;2022-08-19T07:48:13;11.80;;;9.85;;
32297;SDS011;18782;48.984;8.548;2022-08-19T07:50:41;12.95;;;10.05;;
32297;SDS011;18782;48.984;8.548;2022-08-19T07:53:08;11.02;;;9.75;;
32297;SDS011;18782;48.984;8.548;2022-08-19T07:55:37;10.85;;;9.48;;
32297;SDS011;18782;48.984;8.548;2022-08-19T07:58:12;12.13;;;9.55;;
32297;SDS011;18782;48.984;8.548;2022-08-19T08:00:42;10.07;;;9.07;;
32297;SDS011;18782;48.984;8.548;2022-08-19T08:03:10;10.10;;;9.10;;
32297;SDS011;18782;48.984;8.548;2022-08-19T08:05:39;10.80;;;9.57;;
32297;SDS011;18782;48.984;8.548;2022-08-19T08:08:24;10.43;;;9.27;;
32297;SDS011;18782;48.984;8.548;2022-08-19T08:11:14;10.25;;;9.23;;
32297;SDS011;18782;48.984;8.548;2022-08-19T08:13:47;13.15;;;9.60;;
32297;SDS011;18782;48.984;8.548;2022-08-19T08:16:30;13.02;;;9.32;;
32297;SDS011;18782;48.984;8.548;2022-08-19T08:19:00;10.68;;;9.18;;
32297;SDS011;18782;48.984;8.548;2022-08-19T08:21:32;9.37;;;8.37;;
32297;SDS011;18782;48.984;8.548;2022-08-19T08:24:00;9.95;;;8.60;;
32297;SDS011;18782;48.984;8.548;2022-08-19T08:26:28;11.77;;;10.57;;
32297;SDS011;18782;48.984;8.548;2022-08-19T08:29:01;11.88;;;10.30;;
32297;SDS011;18782;48.984;8.548;2022-08-19T08:31:38;13.63;;;9.50;;
32297;SDS011;18782;48.984;8.548;2022-08-19T08:34:07;9.70;;;8.68;;
32297;SDS011;18782;48.984;8.548;2022-08-19T08:36:36;9.88;;;8.88;;
32297;SDS011;18782;48.984;8.548;2022-08-19T08:39:07;9.40;;;8.20;;
32297;SDS011;18782;48.984;8.548;2022-08-19T08:41:37;10.93;;;9.07;;
32297;SDS011;18782;48.984;8.548;2022-08-19T08:44:15;10.65;;;9.55;;
32297;SDS011;18782;48.984;8.548;2022-08-19T08:46:48;11.90;;;9.82;;
32297;SDS011;18782;48.984;8.548;2022-08-19T08:49:24;10.15;;;9.00;;
32297;SDS011;18782;48.984;8.548;2022-08-19T08:51:59;10.88;;;9.05;;
32297;SDS011;18782;48.984;8.548;2022-08-19T08:57:02;9.15;;;7.97;;
32297;SDS011;18782;48.984;8.548;2022-08-19T08:59:33;8.30;;;7.50;;
32297;SDS011;18782;48.984;8.548;2022-08-19T09:02:04;6.85;;;6.15;;
32297;SDS011;18782;48.984;8.548;2022-08-19T09:07:14;7.10;;;6.40;;
32297;SDS011;18782;48.984;8.548;2022-08-19T09:10:02;7.80;;;5.88;;
32297;SDS011;18782;48.984;8.548;2022-08-19T09:12:36;6.20;;;5.60;;
32297;SDS011;18782;48.984;8.548;2022-08-19T09:15:16;6.00;;;5.07;;
32297;SDS011;18782;48.984;8.548;2022-08-19T09:17:59;7.82;;;5.43;;
32297;SDS011;18782;48.984;8.548;2022-08-19T09:20:32;6.72;;;5.95;;
32297;SDS011;18782;48.984;8.548;2022-08-19T09:23:00;7.18;;;5.15;;
32297;SDS011;18782;48.984;8.548;2022-08-19T09:25:28;7.53;;;4.55;;
32297;SDS011;18782;48.984;8.548;2022-08-19T09:27:56;5.72;;;5.13;;
32297;SDS011;18782;48.984;8.548;2022-08-19T09:30:41;5.53;;;5.03;;
32297;SDS011;18782;48.984;8.548;2022-08-19T09:33:09;6.25;;;5.30;;
32297;SDS011;18782;48.984;8.548;2022-08-19T09:35:36;6.82;;;5.50;;
32297;SDS011;18782;48.984;8.548;2022-08-19T09:38:18;6.57;;;5.40;;
32297;SDS011;18782;48.984;8.548;2022-08-19T09:40:46;6.90;;;6.20;;
32297;SDS011;18782;48.984;8.548;2022-08-19T09:43:14;11.70;;;6.63;;
32297;SDS011;18782;48.984;8.548;2022-08-19T09:46:00;7.63;;;6.07;;
32297;SDS011;18782;48.984;8.548;2022-08-19T09:48:28;9.73;;;5.90;;
32297;SDS011;18782;48.984;8.548;2022-08-19T09:51:01;6.45;;;5.50;;
32297;SDS011;18782;48.984;8.548;2022-08-19T09:53:30;7.00;;;4.95;;
32297;SDS011;18782;48.984;8.548;2022-08-19T09:55:59;5.75;;;5.13;;
32297;SDS011;18782;48.984;8.548;2022-08-19T09:58:29;6.10;;;5.57;;
32297;SDS011;18782;48.984;8.548;2022-08-19T10:00:57;6.35;;;5.45;;
32297;SDS011;18782;48.984;8.548;2022-08-19T10:03:29;9.48;;;6.05;;
32297;SDS011;18782;48.984;8.548;2022-08-19T10:05:58;7.05;;;6.35;;
32297;SDS011;18782;48.984;8.548;2022-08-19T10:08:28;7.18;;;5.40;;
32297;SDS011;18782;48.984;8.548;2022-08-19T10:10:57;6.88;;;4.88;;
32297;SDS011;18782;48.984;8.548;2022-08-19T10:13:45;4.50;;;4.10;;
32297;SDS011;18782;48.984;8.548;2022-08-19T10:16:15;7.15;;;4.82;;
32297;SDS011;18782;48.984;8.548;2022-08-19T10:18:53;5.70;;;5.13;;
32297;SDS011;18782;48.984;8.548;2022-08-19T10:21:24;6.35;;;4.50;;
32297;SDS011;18782;48.984;8.548;2022-08-19T10:23:59;5.15;;;4.43;;
32297;SDS011;18782;48.984;8.548;2022-08-19T10:26:31;5.38;;;4.85;;
32297;SDS011;18782;48.984;8.548;2022-08-19T10:29:00;5.50;;;5.00;;
32297;SDS011;18782;48.984;8.548;2022-08-19T10:31:30;6.70;;;5.18;;
32297;SDS011;18782;48.984;8.548;2022-08-19T10:34:20;6.13;;;4.63;;
32297;SDS011;18782;48.984;8.548;2022-08-19T10:36:53;6.68;;;4.35;;
32297;SDS011;18782;48.984;8.548;2022-08-19T10:39:27;5.15;;;4.60;;
32297;SDS011;18782;48.984;8.548;2022-08-19T10:41:56;6.88;;;5.00;;
32297;SDS011;18782;48.984;8.548;2022-08-19T10:44:23;4.38;;;3.97;;
32297;SDS011;18782;48.984;8.548;2022-08-19T10:46:58;5.40;;;4.32;;
32297;SDS011;18782;48.984;8.548;2022-08-19T10:49:27;5.05;;;4.35;;
32297;SDS011;18782;48.984;8.548;2022-08-19T10:51:55;7.57;;;4.07;;
32297;SDS011;18782;48.984;8.548;2022-08-19T10:54:46;4.80;;;4.25;;
32297;SDS011;18782;48.984;8.548;2022-08-19T10:57:34;8.25;;;4.78;;
32297;SDS011;18782;48.984;8.548;2022-08-19T11:00:22;5.13;;;4.57;;
32297;SDS011;18782;48.984;8.548;2022-08-19T11:02:51;11.63;;;4.03;;
32297;SDS011;18782;48.984;8.548;2022-08-19T11:05:20;7.28;;;4.18;;
32297;SDS011;18782;48.984;8.548;2022-08-19T11:07:49;5.55;;;4.50;;
32297;SDS011;18782;48.984;8.548;2022-08-19T11:10:18;4.95;;;4.47;;
32297;SDS011;18782;48.984;8.548;2022-08-19T11:12:47;4.93;;;4.25;;
32297;SDS011;18782;48.984;8.548;2022-08-19T11:15:16;4.75;;;4.10;;
32297;SDS011;18782;48.984;8.548;2022-08-19T11:17:44;6.72;;;4.20;;
32297;SDS011;18782;48.984;8.548;2022-08-19T11:20:13;4.60;;;4.20;;
32297;SDS011;18782;48.984;8.548;2022-08-19T11:22:43;5.70;;;4.13;;
32297;SDS011;18782;48.984;8.548;2022-08-19T11:25:12;4.30;;;3.88;;
32297;SDS011;18782;48.984;8.548;2022-08-19T11:27:41;4.75;;;4.13;;
32297;SDS011;18782;48.984;8.548;2022-08-19T11:30:10;5.13;;;4.57;;
32297;SDS011;18782;48.984;8.548;2022-08-19T11:32:40;5.00;;;3.63;;
32297;SDS011;18782;48.984;8.548;2022-08-19T11:35:14;7.30;;;4.50;;
32297;SDS011;18782;48.984;8.548;2022-08-19T11:37:43;4.18;;;3.78;;
32297;SDS011;18782;48.984;8.548;2022-08-19T11:40:11;6.05;;;4.82;;
32297;SDS011;18782;48.984;8.548;2022-08-19T11:42:39;5.93;;;4.45;;
32297;SDS011;18782;48.984;8.548;2022-08-19T11:45:22;4.47;;;3.60;;
32297;SDS011;18782;48.984;8.548;2022-08-19T11:47:50;6.43;;;4.70;;
32297;SDS011;18782;48.984;8.548;2022-08-19T11:50:18;5.45;;;4.85;;
32297;SDS011;18782;48.984;8.548;2022-08-19T11:52:47;6.13;;;3.95;;
32297;SDS011;18782;48.984;8.548;2022-08-19T11:55:15;4.93;;;4.40;;
32297;SDS011;18782;48.984;8.548;2022-08-19T11:57:43;3.88;;;3.45;;
32297;SDS011;18782;48.984;8.548;2022-08-19T12:00:12;4.40;;;3.97;;
32297;SDS011;18782;48.984;8.548;2022-08-19T12:02:41;7.22;;;3.45;;
32297;SDS011;18782;48.984;8.548;2022-08-19T12:05:09;5.85;;;3.92;;
32297;SDS011;18782;48.984;8.548;2022-08-19T12:07:38;5.18;;;4.25;;
32297;SDS011;18782;48.984;8.548;2022-08-19T12:10:08;5.18;;;3.88;;
32297;SDS011;18782;48.984;8.548;2022-08-19T12:12:36;6.35;;;4.53;;
32297;SDS011;18782;48.984;8.548;2022-08-19T12:15:07;7.18;;;4.22;;
32297;SDS011;18782;48.984;8.548;2022-08-19T12:17:37;5.60;;;4.03;;
32297;SDS011;18782;48.984;8.548;2022-08-19T12:20:06;7.45;;;4.63;;
32297;SDS011;18782;48.984;8.548;2022-08-19T12:22:35;4.57;;;4.18;;
32297;SDS011;18782;48.984;8.548;2022-08-19T12:25:03;5.03;;;4.55;;
32297;SDS011;18782;48.984;8.548;2022-08-19T12:27:34;5.43;;;4.93;;
32297;SDS011;18782;48.984;8.548;2022-08-19T12:30:09;4.95;;;4.45;;
32297;SDS011;18782;48.984;8.548;2022-08-19T12:32:39;5.20;;;4.40;;
32297;SDS011;18782;48.984;8.548;2022-08-19T12:35:07;5.90;;;4.53;;
32297;SDS011;18782;48.984;8.548;2022-08-19T12:37:37;4.63;;;4.05;;
32297;SDS011;18782;48.984;8.548;2022-08-19T12:40:21;5.72;;;4.53;;
32297;SDS011;18782;48.984;8.548;2022-08-19T12:42:53;4.80;;;4.40;;
32297;SDS011;18782;48.984;8.548;2022-08-19T12:45:21;4.88;;;4.47;;
32297;SDS011;18782;48.984;8.548;2022-08-19T12:47:48;5.22;;;4.72;;
32297;SDS011;18782;48.984;8.548;2022-08-19T12:50:20;8.13;;;4.90;;
32297;SDS011;18782;48.984;8.548;2022-08-19T12:52:48;7.32;;;5.72;;
32297;SDS011;18782;48.984;8.548;2022-08-19T12:55:16;6.65;;;5.40;;
32297;SDS011;18782;48.984;8.548;2022-08-19T12:57:44;5.78;;;4.85;;
32297;SDS011;18782;48.984;8.548;2022-08-19T13:00:16;5.05;;;4.00;;
32297;SDS011;18782;48.984;8.548;2022-08-19T13:02:47;6.32;;;4.85;;
32297;SDS011;18782;48.984;8.548;2022-08-19T13:05:18;5.43;;;4.85;;
32297;SDS011;18782;48.984;8.548;2022-08-19T13:07:49;4.78;;;4.38;;
32297;SDS011;18782;48.984;8.548;2022-08-19T13:10:19;4.88;;;4.43;;
32297;SDS011;18782;48.984;8.548;2022-08-19T13:12:48;5.07;;;4.57;;
32297;SDS011;18782;48.984;8.548;2022-08-19T13:15:19;6.53;;;4.70;;
32297;SDS011;18782;48.984;8.548;2022-08-19T13:17:50;5.30;;;4.75;;
32297;SDS011;18782;48.984;8.548;2022-08-19T13:20:20;4.82;;;4.30;;
32297;SDS011;18782;48.984;8.548;2022-08-19T13:22:49;4.85;;;4.28;;
32297;SDS011;18782;48.984;8.548;2022-08-19T13:25:17;4.95;;;4.45;;
32297;SDS011;18782;48.984;8.548;2022-08-19T13:27:46;5.00;;;4.50;;
32297;SDS011;18782;48.984;8.548;2022-08-19T13:30:15;4.85;;;4.25;;
32297;SDS011;18782;48.984;8.548;2022-08-19T13:33:03;7.78;;;4.50;;
32297;SDS011;18782;48.984;8.548;2022-08-19T13:35:37;5.20;;;4.22;;
32297;SDS011;18782;48.984;8.548;2022-08-19T13:38:06;7.65;;;5.35;;
32297;SDS011;18782;48.984;8.548;2022-08-19T13:40:37;4.90;;;4.43;;
32297;SDS011;18782;48.984;8.548;2022-08-19T13:43:06;5.10;;;4.22;;
32297;SDS011;18782;48.984;8.548;2022-08-19T13:45:48;4.72;;;4.30;;
32297;SDS011;18782;48.984;8.548;2022-08-19T13:48:20;4.60;;;4.13;;
32297;SDS011;18782;48.984;8.548;2022-08-19T13:50:47;6.20;;;4.38;;
32297;SDS011;18782;48.984;8.548;2022-08-19T13:53:15;5.28;;;4.38;;
32297;SDS011;18782;48.984;8.548;2022-08-19T13:55:44;6.07;;;4.03;;
32297;SDS011;18782;48.984;8.548;2022-08-19T13:58:13;4.78;;;4.32;;
32297;SDS011;18782;48.984;8.548;2022-08-19T14:00:42;3.70;;;3.40;;
32297;SDS011;18782;48.984;8.548;2022-08-19T14:03:12;5.05;;;3.83;;
32297;SDS011;18782;48.984;8.548;2022-08-19T14:05:41;4.32;;;3.75;;
32297;SDS011;18782;48.984;8.548;2022-08-19T14:08:09;4.43;;;4.03;;
32297;SDS011;18782;48.984;8.548;2022-08-19T14:10:40;4.57;;;4.13;;
32297;SDS011;18782;48.984;8.548;2022-08-19T14:13:12;3.97;;;3.58;;
32297;SDS011;18782;48.984;8.548;2022-08-19T14:15:41;4.07;;;3.78;;
32297;SDS011;18782;48.984;8.548;2022-08-19T14:18:09;4.00;;;3.60;;
32297;SDS011;18782;48.984;8.548;2022-08-19T14:20:37;4.30;;;3.90;;
32297;SDS011;18782;48.984;8.548;2022-08-19T14:23:06;4.30;;;3.90;;
32297;SDS011;18782;48.984;8.548;2022-08-19T14:25:34;4.13;;;3.75;;
32297;SDS011;18782;48.984;8.548;2022-08-19T14:28:01;4.20;;;3.80;;
32297;SDS011;18782;48.984;8.548;2022-08-19T14:30:31;4.03;;;3.72;;
32297;SDS011;18782;48.984;8.548;2022-08-19T14:33:01;4.47;;;3.80;;
32297;SDS011;18782;48.984;8.548;2022-08-19T14:35:29;4.18;;;3.70;;
32297;SDS011;18782;48.984;8.548;2022-08-19T14:38:00;4.20;;;3.80;;
32297;SDS011;18782;48.984;8.548;2022-08-19T14:40:31;3.92;;;3.47;;
32297;SDS011;18782;48.984;8.548;2022-08-19T14:43:00;7.40;;;6.63;;
32297;SDS011;18782;48.984;8.548;2022-08-19T14:45:31;4.60;;;4.13;;
32297;SDS011;18782;48.984;8.548;2022-08-19T14:47:59;5.38;;;4.07;;
32297;SDS011;18782;48.984;8.548;2022-08-19T14:50:27;4.10;;;3.70;;
32297;SDS011;18782;48.984;8.548;2022-08-19T14:52:58;4.40;;;3.63;;
32297;SDS011;18782;48.984;8.548;2022-08-19T14:55:35;7.53;;;4.30;;
32297;SDS011;18782;48.984;8.548;2022-08-19T14:58:03;3.55;;;3.25;;
32297;SDS011;18782;48.984;8.548;2022-08-19T15:00:34;3.58;;;3.28;;
32297;SDS011;18782;48.984;8.548;2022-08-19T15:03:02;3.75;;;3.25;;
32297;SDS011;18782;48.984;8.548;2022-08-19T15:05:30;3.28;;;2.78;;
32297;SDS011;18782;48.984;8.548;2022-08-19T15:07:58;4.15;;;3.75;;